Time;durP1;ratioP1;P1;durP2;ratioP2;P2;SDS_P1;SDS_P2;PMS_P1;PMS_P2;Temp;Humidity;BMP_temperature;BMP_pressure;BME280_temperature;BME280_humidity;BME280_pressure;Samples;Min_cycle;Max_cycle;Signal;HPM_P1;HPM_P2
2022/05/09 00:01:54;;;;;;;10.07;5.68;;;;;;;;;;5094128;28;20065;-39
2022/05/09 00:04:20;;;;;;;10.80;6.03;;;;;;;;;;5093978;28;20024;-39
2022/05/09 00:06:45;;;;;;;7.65;5.20;;;;;;;;;;5093878;28;20065;-40
2022/05/09 00:09:11;;;;;;;7.43;6.03;;;;;;;;;;5094175;28;20023;-39
2022/05/09 00:11:36;;;;;;;8.70;5.68;;;;;;;;;;5094179;28;20028;-39
2022/05/09 00:14:02;;;;;;;8.07;6.28;;;;;;;;;;5093885;28;20020;-39
2022/05/09 00:16:33;;;;;;;8.43;5.57;;;;;;;;;;5093896;28;20401;-40
2022/05/09 00:19:05;;;;;;;12.85;6.68;;;;;;;;;;5093655;28;20028;-39
2022/05/09 00:21:35;;;;;;;9.18;6.88;;;;;;;;;;5093566;28;20095;-39
2022/05/09 00:24:01;;;;;;;8.93;5.93;;;;;;;;;;5093933;28;20020;-39
2022/05/09 00:26:31;;;;;;;12.02;5.82;;;;;;;;;;5093706;28;20023;-39
2022/05/09 00:28:57;;;;;;;8.93;6.28;;;;;;;;;;5093791;28;20020;-39
2022/05/09 00:31:23;;;;;;;9.45;6.22;;;;;;;;;;5093686;28;20137;-39
2022/05/09 00:33:48;;;;;;;8.43;6.07;;;;;;;;;;5093593;28;20055;-40
2022/05/09 00:36:16;;;;;;;9.55;6.00;;;;;;;;;;5093365;28;20109;-39
2022/05/09 00:38:41;;;;;;;9.20;6.35;;;;;;;;;;5093423;28;20038;-39
2022/05/09 00:43:50;;;;;;;8.27;6.13;;;;;;;;;;5092325;28;20105;-39
2022/05/09 00:46:15;;;;;;;11.82;6.35;;;;;;;;;;5093218;28;20052;-39
2022/05/09 00:48:40;;;;;;;9.05;6.60;;;;;;;;;;5093077;28;20024;-39
2022/05/09 00:51:06;;;;;;;7.68;5.85;;;;;;;;;;5093202;28;20445;-39
2022/05/09 00:53:32;;;;;;;7.20;5.50;;;;;;;;;;5093165;28;20026;-39
2022/05/09 00:55:59;;;;;;;9.23;5.97;;;;;;;;;;5093151;28;20020;-40
2022/05/09 00:58:42;;;;;;;8.80;6.28;;;;;;;;;;5092937;28;20139;-39
2022/05/09 01:01:08;;;;;;;11.70;6.55;;;;;;;;;;5093028;28;20032;-39
2022/05/09 01:03:41;;;;;;;9.88;6.18;;;;;;;;;;5093272;28;20016;-39
2022/05/09 01:06:06;;;;;;;7.97;5.78;;;;;;;;;;5093110;28;20095;-40
2022/05/09 01:08:32;;;;;;;10.52;6.40;;;;;;;;;;5092939;28;20024;-39
2022/05/09 01:10:57;;;;;;;7.50;5.68;;;;;;;;;;5093079;28;20024;-39
2022/05/09 01:13:24;;;;;;;8.25;6.03;;;;;;;;;;5092965;28;20048;-39
2022/05/09 01:15:52;;;;;;;9.38;6.85;;;;;;;;;;5092856;28;20076;-39
2022/05/09 01:18:17;;;;;;;8.10;6.35;;;;;;;;;;5093003;28;20067;-40
2022/05/09 01:20:43;;;;;;;7.82;5.82;;;;;;;;;;5093210;28;20070;-39
2022/05/09 01:23:10;;;;;;;11.05;6.75;;;;;;;;;;5092899;28;20074;-39
2022/05/09 01:25:35;;;;;;;10.77;5.68;;;;;;;;;;5092960;28;20024;-39
2022/05/09 01:28:01;;;;;;;9.10;6.53;;;;;;;;;;5092893;28;20378;-39
2022/05/09 01:30:38;;;;;;;10.05;6.45;;;;;;;;;;5092716;28;20477;-39
2022/05/09 01:33:06;;;;;;;8.75;6.25;;;;;;;;;;5092828;28;20027;-39
2022/05/09 01:35:35;;;;;;;9.68;6.53;;;;;;;;;;5092975;28;20371;-39
2022/05/09 01:38:14;;;;;;;10.83;6.50;;;;;;;;;;5092672;28;20115;-39
2022/05/09 01:40:39;;;;;;;8.82;5.63;;;;;;;;;;5092824;28;20089;-40
2022/05/09 01:43:04;;;;;;;9.40;5.85;;;;;;;;;;5092417;28;20020;-39
2022/05/09 01:45:30;;;;;;;13.05;7.05;;;;;;;;;;5093043;28;20020;-39
2022/05/09 01:50:39;;;;;;;8.43;6.68;;;;;;;;;;5092530;28;20437;-39
2022/05/09 01:53:04;;;;;;;12.20;7.53;;;;;;;;;;5092704;28;20020;-39
2022/05/09 01:55:29;;;;;;;10.73;6.60;;;;;;;;;;5095041;28;20027;-40
2022/05/09 01:57:55;;;;;;;9.65;6.43;;;;;;;;;;5096569;28;20150;-39
2022/05/09 02:00:20;;;;;;;12.30;6.75;;;;;;;;;;5096719;28;20044;-39
2022/05/09 02:02:46;;;;;;;11.30;7.47;;;;;;;;;;5096504;28;20031;-39
2022/05/09 02:05:12;;;;;;;10.20;7.13;;;;;;;;;;5096423;28;20016;-39
2022/05/09 02:07:37;;;;;;;10.85;7.07;;;;;;;;;;5095169;28;20431;-39
2022/05/09 02:10:03;;;;;;;12.68;6.72;;;;;;;;;;5096149;28;20012;-40
2022/05/09 02:12:28;;;;;;;8.65;6.88;;;;;;;;;;5096301;28;20028;-39
2022/05/09 02:14:53;;;;;;;11.23;6.88;;;;;;;;;;5096327;28;20027;-39
2022/05/09 02:17:19;;;;;;;11.05;6.88;;;;;;;;;;5096277;28;20032;-39
2022/05/09 02:19:44;;;;;;;11.18;6.50;;;;;;;;;;5096189;28;20455;-39
2022/05/09 02:22:10;;;;;;;8.70;6.68;;;;;;;;;;5096180;28;20020;-39
2022/05/09 02:24:36;;;;;;;8.43;6.50;;;;;;;;;;5096124;28;20142;-40
2022/05/09 02:27:01;;;;;;;10.77;6.82;;;;;;;;;;5095834;28;20069;-39
2022/05/09 02:29:27;;;;;;;9.75;6.15;;;;;;;;;;5095853;28;20012;-39
2022/05/09 02:31:52;;;;;;;11.35;6.60;;;;;;;;;;5096264;28;20022;-39
2022/05/09 02:34:19;;;;;;;7.90;5.68;;;;;;;;;;5096000;28;20039;-39
2022/05/09 02:36:44;;;;;;;7.32;5.97;;;;;;;;;;5095934;28;20016;-39
2022/05/09 02:39:10;;;;;;;9.05;6.50;;;;;;;;;;5095639;28;20486;-39
2022/05/09 02:41:36;;;;;;;9.23;6.72;;;;;;;;;;5095621;28;20032;-39
2022/05/09 02:44:01;;;;;;;7.65;5.90;;;;;;;;;;5095709;28;20117;-39
2022/05/09 02:46:28;;;;;;;10.20;6.95;;;;;;;;;;5095834;28;20070;-39
2022/05/09 02:48:53;;;;;;;9.20;6.38;;;;;;;;;;5095659;28;20512;-39
2022/05/09 02:51:19;;;;;;;9.02;6.28;;;;;;;;;;5095535;28;20053;-39
2022/05/09 02:53:44;;;;;;;8.55;6.75;;;;;;;;;;5095526;28;20043;-39
2022/05/09 02:56:10;;;;;;;9.25;6.30;;;;;;;;;;5095082;28;20035;-39
2022/05/09 02:58:35;;;;;;;10.35;6.50;;;;;;;;;;5095545;28;20042;-39
2022/05/09 03:01:01;;;;;;;9.15;6.68;;;;;;;;;;5095474;28;20360;-39
2022/05/09 03:06:27;;;;;;;8.88;6.53;;;;;;;;;;5031695;28;20583;-39
2022/05/09 03:08:52;;;;;;;8.82;6.32;;;;;;;;;;5081698;28;20066;-39
2022/05/09 03:11:18;;;;;;;10.77;6.38;;;;;;;;;;5095638;28;20098;-39
2022/05/09 03:13:43;;;;;;;8.75;6.43;;;;;;;;;;5095314;28;20020;-39
2022/05/09 03:16:09;;;;;;;9.93;6.97;;;;;;;;;;5095274;28;20062;-39
2022/05/09 03:18:35;;;;;;;7.40;6.07;;;;;;;;;;5095124;28;20032;-39
2022/05/09 03:21:01;;;;;;;10.23;6.80;;;;;;;;;;5094914;28;20019;-39
2022/05/09 03:23:26;;;;;;;14.40;7.85;;;;;;;;;;5094661;28;20046;-39
2022/05/09 03:25:51;;;;;;;9.52;6.80;;;;;;;;;;5094908;28;20023;-39
2022/05/09 03:28:24;;;;;;;9.07;6.38;;;;;;;;;;5095280;28;20016;-39
2022/05/09 03:30:50;;;;;;;10.95;6.72;;;;;;;;;;5094812;28;20107;-39
2022/05/09 03:33:15;;;;;;;8.98;6.90;;;;;;;;;;5094822;28;20024;-39
2022/05/09 03:35:41;;;;;;;9.77;7.22;;;;;;;;;;5094594;28;20524;-40
2022/05/09 03:38:07;;;;;;;9.90;6.80;;;;;;;;;;5094399;28;20107;-39
2022/05/09 03:40:34;;;;;;;18.00;8.50;;;;;;;;;;5094766;28;20107;-39
2022/05/09 03:42:59;;;;;;;9.23;6.57;;;;;;;;;;5094608;28;20047;-39
2022/05/09 03:45:25;;;;;;;10.38;6.50;;;;;;;;;;5094458;28;20020;-39
2022/05/09 03:47:51;;;;;;;9.73;6.85;;;;;;;;;;5094548;28;20451;-39
2022/05/09 03:50:16;;;;;;;10.55;6.85;;;;;;;;;;5094402;28;20043;-39
2022/05/09 03:52:41;;;;;;;10.48;7.30;;;;;;;;;;5094220;28;20030;-39
2022/05/09 03:55:07;;;;;;;9.93;6.43;;;;;;;;;;5094527;28;20102;-39
2022/05/09 03:57:32;;;;;;;8.23;6.22;;;;;;;;;;5094370;28;20047;-39
2022/05/09 04:00:07;;;;;;;13.60;7.13;;;;;;;;;;5094230;28;20117;-39
2022/05/09 04:02:32;;;;;;;12.00;6.10;;;;;;;;;;5094086;28;20030;-39
2022/05/09 04:04:57;;;;;;;9.82;7.30;;;;;;;;;;5094216;28;20020;-39
2022/05/09 04:07:22;;;;;;;7.78;5.60;;;;;;;;;;5093873;28;20434;-39
2022/05/09 04:09:48;;;;;;;8.98;6.03;;;;;;;;;;5094531;28;20020;-39
2022/05/09 04:12:13;;;;;;;10.63;6.03;;;;;;;;;;5094071;28;20026;-39
2022/05/09 04:17:22;;;;;;;14.23;6.20;;;;;;;;;;5093465;28;20398;-39
2022/05/09 04:19:47;;;;;;;10.32;5.65;;;;;;;;;;5093461;28;20103;-39
2022/05/09 04:22:13;;;;;;;7.95;5.65;;;;;;;;;;5093633;28;20032;-39
2022/05/09 04:24:38;;;;;;;8.85;5.72;;;;;;;;;;5094012;28;20039;-39
2022/05/09 04:27:04;;;;;;;6.53;5.18;;;;;;;;;;5093794;28;20027;-39
2022/05/09 04:29:29;;;;;;;7.25;4.95;;;;;;;;;;5093747;28;20455;-39
2022/05/09 04:31:54;;;;;;;6.13;4.90;;;;;;;;;;5093671;28;20056;-39
2022/05/09 04:34:19;;;;;;;8.77;5.68;;;;;;;;;;5093670;28;20047;-39
2022/05/09 04:36:45;;;;;;;13.45;5.57;;;;;;;;;;5093489;28;20020;-39
2022/05/09 04:39:11;;;;;;;9.77;5.07;;;;;;;;;;5093542;28;20059;-39
2022/05/09 04:41:39;;;;;;;6.68;5.38;;;;;;;;;;5093599;28;20076;-39
2022/05/09 04:44:05;;;;;;;6.50;4.80;;;;;;;;;;5093400;28;20028;-39
2022/05/09 04:46:31;;;;;;;7.22;4.70;;;;;;;;;;5093347;28;20024;-39
2022/05/09 04:48:56;;;;;;;8.35;4.45;;;;;;;;;;5093179;28;20119;-40
2022/05/09 04:51:22;;;;;;;8.68;5.03;;;;;;;;;;5093238;28;20031;-39
2022/05/09 04:53:49;;;;;;;4.57;4.15;;;;;;;;;;5093363;28;20016;-39
2022/05/09 04:56:15;;;;;;;8.27;4.28;;;;;;;;;;5093334;28;20028;-39
2022/05/09 04:58:40;;;;;;;6.00;4.43;;;;;;;;;;5093148;28;20467;-39
2022/05/09 05:01:05;;;;;;;14.77;4.65;;;;;;;;;;5093231;28;20414;-39
2022/05/09 05:03:31;;;;;;;6.78;4.30;;;;;;;;;;5093018;28;20100;-39
2022/05/09 05:05:56;;;;;;;7.50;4.18;;;;;;;;;;5093025;28;20366;-39
2022/05/09 05:08:21;;;;;;;5.53;4.13;;;;;;;;;;5093162;28;20016;-39
2022/05/09 05:10:52;;;;;;;5.97;4.25;;;;;;;;;;5093369;28;20111;-39
2022/05/09 05:13:18;;;;;;;5.72;4.20;;;;;;;;;;5093083;28;20062;-39
2022/05/09 05:15:43;;;;;;;7.13;4.43;;;;;;;;;;5092917;28;20493;-39
2022/05/09 05:18:09;;;;;;;5.85;4.15;;;;;;;;;;5092803;28;20028;-39
2022/05/09 05:20:35;;;;;;;5.40;4.22;;;;;;;;;;5092565;28;20070;-39
2022/05/09 05:23:00;;;;;;;9.90;4.25;;;;;;;;;;5093062;28;20108;-39
2022/05/09 05:25:27;;;;;;;7.40;4.53;;;;;;;;;;5092755;28;20055;-39
2022/05/09 05:27:52;;;;;;;7.65;5.00;;;;;;;;;;5092900;28;20035;-39
2022/05/09 05:30:18;;;;;;;9.75;4.68;;;;;;;;;;5095103;28;20016;-39
2022/05/09 05:32:44;;;;;;;9.55;4.60;;;;;;;;;;5096929;28;20451;-39
2022/05/09 05:35:12;;;;;;;8.13;5.18;;;;;;;;;;5096918;28;20027;-39
2022/05/09 05:37:37;;;;;;;6.53;4.37;;;;;;;;;;5096900;28;20031;-39
2022/05/09 05:40:03;;;;;;;7.30;4.28;;;;;;;;;;5096482;28;20099;-39
2022/05/09 05:42:28;;;;;;;12.20;5.18;;;;;;;;;;5096912;28;20078;-39
2022/05/09 05:44:54;;;;;;;7.05;4.80;;;;;;;;;;5095108;28;20074;-39
2022/05/09 05:47:20;;;;;;;7.78;5.40;;;;;;;;;;5096451;28;20115;-38
2022/05/09 05:49:46;;;;;;;5.55;4.30;;;;;;;;;;5087196;28;20042;-38
2022/05/09 05:52:11;;;;;;;10.05;4.82;;;;;;;;;;5079037;28;20096;-42
2022/05/09 05:54:40;;;;;;;12.35;4.95;;;;;;;;;;5077582;28;20036;-38
2022/05/09 05:57:06;;;;;;;9.77;4.80;;;;;;;;;;5076650;28;20053;-41
2022/05/09 05:59:32;;;;;;;15.52;4.80;;;;;;;;;;5085908;28;20059;-40
2022/05/09 06:01:57;;;;;;;5.70;3.90;;;;;;;;;;5092362;28;20056;-39
2022/05/09 06:04:23;;;;;;;9.80;4.25;;;;;;;;;;5082574;28;20423;-39
2022/05/09 06:06:49;;;;;;;8.73;4.30;;;;;;;;;;5074521;28;20059;-40
2022/05/09 06:09:14;;;;;;;7.60;4.38;;;;;;;;;;5078174;28;20028;-40
2022/05/09 06:11:40;;;;;;;11.27;4.57;;;;;;;;;;5096398;28;20402;-39
2022/05/09 06:14:07;;;;;;;6.68;4.07;;;;;;;;;;5093059;28;20081;-42
2022/05/09 06:16:32;;;;;;;6.07;4.28;;;;;;;;;;5084013;28;20095;-38
2022/05/09 06:18:59;;;;;;;7.53;4.55;;;;;;;;;;5079773;28;20127;-38
2022/05/09 06:21:25;;;;;;;11.52;4.85;;;;;;;;;;5087438;28;20056;-40
2022/05/09 06:23:50;;;;;;;9.07;4.38;;;;;;;;;;5073254;28;20442;-37
2022/05/09 06:26:15;;;;;;;10.65;4.07;;;;;;;;;;5086178;28;20020;-39
2022/05/09 06:28:41;;;;;;;6.70;3.95;;;;;;;;;;5093937;28;20024;-38
2022/05/09 06:31:06;;;;;;;7.35;3.75;;;;;;;;;;5093624;28;20069;-38
2022/05/09 06:33:32;;;;;;;10.68;4.20;;;;;;;;;;5090147;28;20016;-38
2022/05/09 06:35:58;;;;;;;17.98;5.95;;;;;;;;;;5086589;28;20031;-38
2022/05/09 06:38:25;;;;;;;6.28;4.38;;;;;;;;;;5093154;28;20043;-38
2022/05/09 06:40:52;;;;;;;8.90;4.40;;;;;;;;;;5093271;28;20572;-38
2022/05/09 06:43:18;;;;;;;10.45;5.03;;;;;;;;;;5091641;28;20024;-38
2022/05/09 06:45:43;;;;;;;7.43;4.43;;;;;;;;;;5091128;28;20039;-38
2022/05/09 06:48:09;;;;;;;7.90;4.40;;;;;;;;;;5100667;28;20028;-38
2022/05/09 06:50:35;;;;;;;37.47;7.85;;;;;;;;;;5083956;28;20031;-37
2022/05/09 06:53:01;;;;;;;16.30;4.50;;;;;;;;;;5089894;28;20378;-38
2022/05/09 06:55:26;;;;;;;14.55;4.93;;;;;;;;;;5083021;28;20017;-38
2022/05/09 06:57:52;;;;;;;13.18;5.45;;;;;;;;;;5085841;28;20078;-38
2022/05/09 07:00:21;;;;;;;9.10;4.75;;;;;;;;;;5083263;28;20041;-38
2022/05/09 07:02:46;;;;;;;8.10;4.95;;;;;;;;;;5086388;28;20027;-41
2022/05/09 07:05:13;;;;;;;10.48;4.88;;;;;;;;;;5089506;28;20034;-38
2022/05/09 07:07:39;;;;;;;11.55;4.80;;;;;;;;;;5074579;28;20433;-39
2022/05/09 07:10:05;;;;;;;10.23;3.92;;;;;;;;;;5080382;28;20024;-38
2022/05/09 07:12:30;;;;;;;14.77;4.63;;;;;;;;;;5077861;28;20111;-40
2022/05/09 07:14:56;;;;;;;7.47;4.10;;;;;;;;;;5091315;28;20471;-38
2022/05/09 07:17:21;;;;;;;6.35;4.13;;;;;;;;;;5092322;28;20471;-38
2022/05/09 07:19:46;;;;;;;8.30;4.40;;;;;;;;;;5083730;28;20032;-38
2022/05/09 07:22:11;;;;;;;8.30;4.60;;;;;;;;;;5084003;28;20451;-37
2022/05/09 07:24:37;;;;;;;10.63;4.57;;;;;;;;;;5090310;28;20021;-38
2022/05/09 07:27:02;;;;;;;8.35;4.43;;;;;;;;;;5086145;28;20016;-37
2022/05/09 07:29:28;;;;;;;7.43;4.07;;;;;;;;;;5078177;28;20036;-38
2022/05/09 07:31:53;;;;;;;8.63;4.28;;;;;;;;;;5088514;28;20020;-37
2022/05/09 07:34:18;;;;;;;7.63;4.00;;;;;;;;;;5085609;28;20035;-37
2022/05/09 07:36:44;;;;;;;7.80;3.90;;;;;;;;;;5091356;28;20024;-37
2022/05/09 07:39:09;;;;;;;5.18;3.55;;;;;;;;;;5087127;28;20063;-37
2022/05/09 07:41:34;;;;;;;7.07;4.03;;;;;;;;;;5091181;28;20081;-37
2022/05/09 07:44:00;;;;;;;16.33;7.25;;;;;;;;;;5091690;28;20150;-37
2022/05/09 07:46:25;;;;;;;12.85;4.25;;;;;;;;;;5078228;28;20020;-38
2022/05/09 07:48:52;;;;;;;7.40;4.47;;;;;;;;;;5083926;28;20024;-38
2022/05/09 07:51:18;;;;;;;9.77;4.43;;;;;;;;;;5084363;28;20018;-41
2022/05/09 07:53:43;;;;;;;12.73;5.85;;;;;;;;;;5083648;28;20024;-37
2022/05/09 07:56:09;;;;;;;13.85;6.15;;;;;;;;;;5078975;28;20052;-37
2022/05/09 07:58:35;;;;;;;23.48;11.35;;;;;;;;;;5087556;28;20055;-37
2022/05/09 08:01:02;;;;;;;21.92;10.82;;;;;;;;;;5086279;28;20378;-37
2022/05/09 08:03:29;;;;;;;14.98;8.52;;;;;;;;;;5087015;28;20024;-37
2022/05/09 08:05:56;;;;;;;13.57;7.95;;;;;;;;;;5084505;28;20027;-37
2022/05/09 08:08:21;;;;;;;9.88;4.10;;;;;;;;;;5083983;28;20078;-37
2022/05/09 08:10:47;;;;;;;7.72;4.63;;;;;;;;;;5075329;28;20430;-37
2022/05/09 08:13:13;;;;;;;9.38;4.53;;;;;;;;;;5090142;28;20406;-38
2022/05/09 08:15:39;;;;;;;6.20;3.80;;;;;;;;;;5093673;28;20024;-37
2022/05/09 08:18:05;;;;;;;10.02;4.13;;;;;;;;;;5086242;28;20048;-38
2022/05/09 08:20:33;;;;;;;7.28;3.88;;;;;;;;;;5078088;28;20418;-37
2022/05/09 08:23:06;;;;;;;7.35;4.20;;;;;;;;;;5080589;28;20032;-37
2022/05/09 08:25:34;;;;;;;5.88;4.35;;;;;;;;;;5073343;28;20021;-38
2022/05/09 08:28:01;;;;;;;3.83;3.47;;;;;;;;;;5080350;28;20024;-37
2022/05/09 08:30:29;;;;;;;6.68;4.82;;;;;;;;;;5090796;28;20035;-37
2022/05/09 08:32:55;;;;;;;7.95;3.53;;;;;;;;;;5079327;28;20115;-37
2022/05/09 08:35:20;;;;;;;4.88;3.67;;;;;;;;;;5078067;28;20158;-36
2022/05/09 08:37:45;;;;;;;5.80;3.58;;;;;;;;;;5092837;28;20118;-37
2022/05/09 08:40:13;;;;;;;7.20;4.20;;;;;;;;;;5093517;28;20019;-38
2022/05/09 08:42:41;;;;;;;8.17;3.90;;;;;;;;;;5093010;28;20233;-37
2022/05/09 08:45:25;;;;;;;7.93;4.18;;;;;;;;;;5091221;28;20102;-38
2022/05/09 08:47:59;;;;;;;7.35;3.85;;;;;;;;;;5102244;28;20027;-37
2022/05/09 08:50:35;;;;;;;8.07;3.83;;;;;;;;;;5083666;28;20024;-37
2022/05/09 08:53:03;;;;;;;7.05;3.95;;;;;;;;;;5072412;28;20025;-37
2022/05/09 08:55:35;;;;;;;4.78;3.53;;;;;;;;;;5070805;28;20459;-37
2022/05/09 08:58:16;;;;;;;37.40;13.45;;;;;;;;;;5075243;28;20052;-38
2022/05/09 09:00:42;;;;;;;21.38;7.43;;;;;;;;;;5090365;28;20066;-40
2022/05/09 09:03:22;;;;;;;9.88;4.70;;;;;;;;;;5071907;28;20467;-38
2022/05/09 09:05:50;;;;;;;10.18;4.72;;;;;;;;;;5074956;28;20032;-37
2022/05/09 09:08:28;;;;;;;16.63;6.00;;;;;;;;;;5081234;28;20025;-38
2022/05/09 09:11:02;;;;;;;7.65;4.07;;;;;;;;;;5087772;28;20023;-39
2022/05/09 09:13:46;;;;;;;10.13;3.65;;;;;;;;;;5099816;28;20107;-38
2022/05/09 09:16:24;;;;;;;6.50;3.95;;;;;;;;;;5092886;28;20024;-38
2022/05/09 09:19:04;;;;;;;5.63;3.53;;;;;;;;;;5092313;28;20099;-39
2022/05/09 09:21:48;;;;;;;7.22;3.88;;;;;;;;;;5080478;28;20076;-37
2022/05/09 09:24:14;;;;;;;10.63;3.75;;;;;;;;;;5081006;28;20067;-38
2022/05/09 09:26:45;;;;;;;7.53;3.88;;;;;;;;;;5071220;28;20048;-38
2022/05/09 09:29:14;;;;;;;12.80;3.45;;;;;;;;;;5072713;28;20033;-38
2022/05/09 09:31:44;;;;;;;5.25;3.70;;;;;;;;;;5072722;28;20028;-38
2022/05/09 09:34:17;;;;;;;7.55;3.58;;;;;;;;;;5072579;28;20095;-38
2022/05/09 09:36:45;;;;;;;6.32;3.45;;;;;;;;;;5072566;28;20028;-38
2022/05/09 09:39:15;;;;;;;4.63;3.17;;;;;;;;;;5072300;28;20029;-38
2022/05/09 09:41:41;;;;;;;6.03;3.47;;;;;;;;;;5072580;28;20498;-38
2022/05/09 09:44:19;;;;;;;5.38;3.38;;;;;;;;;;5072344;28;20044;-37
2022/05/09 09:47:00;;;;;;;3.92;2.90;;;;;;;;;;5072659;28;20396;-37
2022/05/09 09:49:25;;;;;;;6.72;3.05;;;;;;;;;;5072377;28;20025;-38
2022/05/09 09:51:51;;;;;;;7.18;3.17;;;;;;;;;;5072232;28;20025;-38
2022/05/09 09:54:21;;;;;;;5.63;3.60;;;;;;;;;;5071127;28;20016;-38
2022/05/09 09:56:46;;;;;;;3.88;3.25;;;;;;;;;;5072237;28;20127;-37
2022/05/09 09:59:11;;;;;;;4.43;3.23;;;;;;;;;;5072351;28;20119;-37
2022/05/09 10:01:37;;;;;;;6.67;3.63;;;;;;;;;;5072350;28;20234;-38
2022/05/09 10:04:13;;;;;;;6.65;3.10;;;;;;;;;;5072147;28;20340;-38
2022/05/09 10:06:59;;;;;;;8.45;3.30;;;;;;;;;;5075246;28;20048;-39
2022/05/09 10:09:24;;;;;;;5.72;3.63;;;;;;;;;;5076741;28;20032;-39
2022/05/09 10:11:50;;;;;;;10.40;3.70;;;;;;;;;;5083835;28;20027;-38
2022/05/09 10:14:32;;;;;;;11.63;3.80;;;;;;;;;;5079818;28;20055;-40
2022/05/09 10:17:16;;;;;;;5.30;3.20;;;;;;;;;;5080744;28;20272;-38
2022/05/09 10:19:42;;;;;;;4.28;3.10;;;;;;;;;;5083375;28;20063;-39
2022/05/09 10:24:57;;;;;;;6.23;2.87;;;;;;;;;;5075851;28;20048;-39
2022/05/09 10:27:23;;;;;;;5.13;3.20;;;;;;;;;;5082850;28;20020;-38
2022/05/09 10:29:50;;;;;;;9.63;3.67;;;;;;;;;;5086629;28;20138;-38
2022/05/09 10:32:17;;;;;;;5.07;3.53;;;;;;;;;;5084479;28;20447;-38
2022/05/09 10:34:49;;;;;;;7.50;3.30;;;;;;;;;;5078537;28;20031;-38
2022/05/09 10:37:38;;;;;;;6.20;3.40;;;;;;;;;;5093565;28;20024;-38
2022/05/09 10:40:25;;;;;;;5.03;3.50;;;;;;;;;;5086479;28;20482;-38
2022/05/09 10:42:56;;;;;;;7.78;3.20;;;;;;;;;;5078767;28;20036;-39
2022/05/09 10:45:26;;;;;;;7.07;3.15;;;;;;;;;;5078408;28;20074;-38
2022/05/09 10:47:58;;;;;;;6.82;3.55;;;;;;;;;;5087605;28;20024;-38
2022/05/09 10:50:45;;;;;;;5.47;3.10;;;;;;;;;;5084516;28;20098;-38
2022/05/09 10:53:14;;;;;;;5.03;3.17;;;;;;;;;;5084329;28;20428;-38
2022/05/09 10:55:43;;;;;;;8.15;3.22;;;;;;;;;;5087485;28;20463;-38
2022/05/09 10:58:08;;;;;;;;;;;;;;;;;;5095000;28;20044;-39
2022/05/09 11:00:35;;;;;;;5.17;3.20;;;;;;;;;;5086217;28;19913;-39
2022/05/09 11:03:18;;;;;;;3.95;2.88;;;;;;;;;;5088252;28;20424;-39
2022/05/09 11:05:53;;;;;;;6.15;3.20;;;;;;;;;;5086464;28;20043;-39
2022/05/09 11:08:39;;;;;;;4.93;3.15;;;;;;;;;;5083934;28;20059;-41
2022/05/09 11:11:25;;;;;;;5.90;3.17;;;;;;;;;;5084235;28;20024;-39
2022/05/09 11:13:50;;;;;;;11.02;3.80;;;;;;;;;;5083250;28;20395;-41
2022/05/09 11:16:18;;;;;;;4.53;3.50;;;;;;;;;;5088011;28;20016;-39
2022/05/09 11:18:56;;;;;;;5.90;3.63;;;;;;;;;;5093934;28;20032;-38
2022/05/09 11:21:57;;;;;;;5.43;3.25;;;;;;;;;;5085624;28;20035;-38
2022/05/09 11:24:41;;;;;;;8.57;3.00;;;;;;;;;;5070347;28;20051;-38
2022/05/09 11:27:12;;;;;;;16.48;3.40;;;;;;;;;;5076838;28;20045;-39
2022/05/09 11:29:46;;;;;;;10.27;3.55;;;;;;;;;;5077458;28;20025;-40
2022/05/09 11:32:20;;;;;;;7.72;3.22;;;;;;;;;;5087783;28;20020;-39
2022/05/09 11:35:01;;;;;;;7.88;2.90;;;;;;;;;;5087543;28;20052;-40
2022/05/09 11:37:38;;;;;;;4.55;2.40;;;;;;;;;;5083421;28;20035;-40
2022/05/09 11:40:26;;;;;;;8.73;2.38;;;;;;;;;;5079429;28;20036;-41
2022/05/09 11:45:51;;;;;;;5.25;3.00;;;;;;;;;;5081588;28;20039;-40
2022/05/09 11:48:29;;;;;;;8.40;2.95;;;;;;;;;;5089596;28;20020;-39
2022/05/09 11:50:58;;;;;;;5.70;3.38;;;;;;;;;;5085027;28;20469;-40
2022/05/09 11:53:24;;;;;;;5.17;3.70;;;;;;;;;;5085017;28;20540;-40
2022/05/09 11:55:50;;;;;;;8.38;3.38;;;;;;;;;;5091170;28;20344;-39
2022/05/09 11:58:16;;;;;;;26.20;6.85;;;;;;;;;;5089152;28;20162;-39
2022/05/09 12:00:44;;;;;;;51.83;14.27;;;;;;;;;;5086989;28;20149;-40
2022/05/09 12:03:10;;;;;;;6.55;3.40;;;;;;;;;;5081960;28;20679;-39
2022/05/09 12:05:36;;;;;;;8.85;4.05;;;;;;;;;;5076646;28;20467;-39
2022/05/09 12:08:03;;;;;;;7.38;3.60;;;;;;;;;;5084225;28;20487;-39
2022/05/09 12:10:30;;;;;;;4.07;3.13;;;;;;;;;;5081811;28;20052;-39
2022/05/09 12:12:59;;;;;;;12.82;5.15;;;;;;;;;;5082598;28;20021;-40
2022/05/09 12:15:24;;;;;;;10.07;4.00;;;;;;;;;;5083591;28;20085;-38
2022/05/09 12:18:04;;;;;;;8.23;3.63;;;;;;;;;;5085808;28;20032;-39
2022/05/09 12:20:29;;;;;;;8.00;4.10;;;;;;;;;;5086504;28;20031;-40
2022/05/09 12:22:56;;;;;;;6.13;4.18;;;;;;;;;;5087184;28;20070;-40
2022/05/09 12:25:36;;;;;;;8.00;3.55;;;;;;;;;;5082357;28;20068;-39
2022/05/09 12:28:19;;;;;;;7.63;4.22;;;;;;;;;;5081836;28;20122;-39
2022/05/09 12:30:56;;;;;;;8.55;4.65;;;;;;;;;;5087969;28;20042;-39
2022/05/09 12:33:41;;;;;;;10.30;4.85;;;;;;;;;;5083888;28;20085;-38
2022/05/09 12:36:14;;;;;;;8.32;4.05;;;;;;;;;;5080784;28;20029;-38
2022/05/09 12:38:44;;;;;;;8.88;4.15;;;;;;;;;;5079457;28;20759;-40
2022/05/09 12:41:09;;;;;;;10.43;4.38;;;;;;;;;;5082870;28;20024;-38
2022/05/09 12:43:36;;;;;;;5.43;3.40;;;;;;;;;;5089522;28;20047;-41
2022/05/09 12:46:03;;;;;;;4.43;3.67;;;;;;;;;;5076590;28;20020;-39
2022/05/09 12:48:29;;;;;;;6.57;2.50;;;;;;;;;;5097673;28;20020;-39
2022/05/09 12:51:01;;;;;;;3.50;2.92;;;;;;;;;;5088339;28;20024;-39
2022/05/09 12:53:30;;;;;;;6.10;2.70;;;;;;;;;;5087868;28;20028;-39
2022/05/09 12:55:55;;;;;;;4.85;3.42;;;;;;;;;;5088336;28;20016;-38
2022/05/09 12:58:22;;;;;;;3.53;2.65;;;;;;;;;;5084886;28;20113;-39
2022/05/09 13:00:48;;;;;;;9.60;4.95;;;;;;;;;;5084148;28;20115;-40
2022/05/09 13:03:14;;;;;;;5.55;3.53;;;;;;;;;;5078802;28;20498;-39
2022/05/09 13:05:41;;;;;;;75.70;15.07;;;;;;;;;;5088312;28;20028;-38
2022/05/09 13:08:08;;;;;;;10.77;4.85;;;;;;;;;;5088568;28;20022;-38
2022/05/09 13:10:43;;;;;;;13.13;4.50;;;;;;;;;;5072142;28;20474;-38
2022/05/09 13:13:09;;;;;;;5.43;3.95;;;;;;;;;;5088048;28;20903;-38
2022/05/09 13:15:34;;;;;;;9.88;4.30;;;;;;;;;;5075418;28;20024;-38
2022/05/09 13:18:01;;;;;;;9.40;4.38;;;;;;;;;;5072225;28;20039;-39
2022/05/09 13:20:28;;;;;;;8.38;4.40;;;;;;;;;;5078917;28;20495;-39
2022/05/09 13:22:56;;;;;;;9.20;4.75;;;;;;;;;;5088741;28;20016;-38
2022/05/09 13:25:28;;;;;;;5.90;3.72;;;;;;;;;;5086619;28;20020;-38
2022/05/09 13:27:56;;;;;;;3.70;3.22;;;;;;;;;;5076348;28;20028;-38
2022/05/09 13:30:22;;;;;;;6.18;3.72;;;;;;;;;;5086499;28;20028;-39
2022/05/09 13:32:55;;;;;;;7.97;3.80;;;;;;;;;;5091982;28;20024;-38
2022/05/09 13:35:26;;;;;;;4.47;3.40;;;;;;;;;;5090520;28;20032;-38
2022/05/09 13:37:52;;;;;;;5.07;3.17;;;;;;;;;;5078754;28;20047;-38
2022/05/09 13:40:19;;;;;;;7.35;3.40;;;;;;;;;;5090233;28;20042;-38
2022/05/09 13:42:46;;;;;;;13.15;3.97;;;;;;;;;;5088371;28;20386;-38
2022/05/09 13:45:32;;;;;;;6.35;3.80;;;;;;;;;;5080428;28;20051;-38
2022/05/09 13:47:59;;;;;;;6.47;4.13;;;;;;;;;;5077159;28;20035;-38
2022/05/09 13:50:29;;;;;;;7.18;3.80;;;;;;;;;;5080217;28;20039;-39
2022/05/09 13:52:55;;;;;;;5.32;3.63;;;;;;;;;;5080668;28;20020;-37
2022/05/09 13:55:29;;;;;;;7.22;4.40;;;;;;;;;;5076057;28;20020;-39
2022/05/09 13:57:55;;;;;;;9.45;4.72;;;;;;;;;;5089607;28;20048;-38
2022/05/09 14:00:22;;;;;;;7.15;3.97;;;;;;;;;;5086847;28;20463;-38
2022/05/09 14:02:51;;;;;;;5.75;4.05;;;;;;;;;;5095805;28;20020;-38
2022/05/09 14:05:20;;;;;;;8.07;4.65;;;;;;;;;;5088337;28;20023;-39
2022/05/09 14:07:47;;;;;;;10.27;4.05;;;;;;;;;;5092968;28;20024;-38
2022/05/09 14:10:25;;;;;;;8.52;4.40;;;;;;;;;;5084816;28;20017;-38
2022/05/09 14:12:51;;;;;;;5.85;4.13;;;;;;;;;;5081025;28;20090;-37
2022/05/09 14:15:18;;;;;;;8.10;4.00;;;;;;;;;;5092124;28;20024;-38
2022/05/09 14:17:46;;;;;;;6.53;4.22;;;;;;;;;;5088331;28;20063;-38
2022/05/09 14:20:20;;;;;;;5.93;4.20;;;;;;;;;;5091344;28;20027;-38
2022/05/09 14:22:46;;;;;;;5.32;4.20;;;;;;;;;;5085923;28;20108;-38
2022/05/09 14:30:42;;;;;;;11.88;4.97;;;;;;;;;;5092012;28;20077;-39
2022/05/09 14:33:27;;;;;;;6.50;4.03;;;;;;;;;;5087409;28;20032;-40
2022/05/09 14:35:52;;;;;;;4.43;3.30;;;;;;;;;;5095268;28;20367;-40
2022/05/09 14:38:29;;;;;;;4.53;2.80;;;;;;;;;;5095408;28;20032;-39
2022/05/09 14:41:06;;;;;;;6.22;2.67;;;;;;;;;;5095010;28;20470;-39
2022/05/09 14:43:31;;;;;;;11.60;2.97;;;;;;;;;;5095478;28;20024;-39
2022/05/09 14:46:01;;;;;;;4.38;2.53;;;;;;;;;;5095475;28;20364;-42
2022/05/09 14:48:29;;;;;;;3.17;2.50;;;;;;;;;;5107661;28;20019;-40
2022/05/09 14:50:57;;;;;;;6.93;2.28;;;;;;;;;;5114855;28;20019;-40
2022/05/09 14:53:27;;;;;;;5.53;2.75;;;;;;;;;;5114647;28;20035;-39
2022/05/09 14:59:09;;;;;;;5.25;2.97;;;;;;;;;;5114603;28;20143;-39
2022/05/09 15:01:48;;;;;;;5.78;2.70;;;;;;;;;;5114312;28;20019;-39
2022/05/09 15:04:13;;;;;;;7.53;3.05;;;;;;;;;;5109089;28;20134;-39
2022/05/09 15:06:38;;;;;;;5.82;3.40;;;;;;;;;;5095628;28;20055;-39
2022/05/09 15:09:03;;;;;;;15.32;3.90;;;;;;;;;;5095321;28;20375;-39
2022/05/09 15:11:31;;;;;;;5.20;3.08;;;;;;;;;;5095471;28;20099;-39
2022/05/09 15:13:57;;;;;;;16.85;3.42;;;;;;;;;;5094928;28;20024;-39